sensor_id;sensor_type;location;lat;lon;timestamp;temperature;humidity
65078;DHT22;51672;51.230;-2.322;2022-09-03T00:02:37;16.30;97.00
65078;DHT22;51672;51.230;-2.322;2022-09-03T00:06:22;16.20;98.50
65078;DHT22;51672;51.230;-2.322;2022-09-03T00:10:10;16.10;98.70
65078;DHT22;51672;51.230;-2.322;2022-09-03T00:14:06;16.00;98.20
65078;DHT22;51672;51.230;-2.322;2022-09-03T00:18:01;15.90;98.40
65078;DHT22;51672;51.230;-2.322;2022-09-03T00:21:55;15.90;98.50
65078;DHT22;51672;51.230;-2.322;2022-09-03T00:25:51;15.80;99.10
65078;DHT22;51672;51.230;-2.322;2022-09-03T00:29:38;15.70;98.70
65078;DHT22;51672;51.230;-2.322;2022-09-03T00:33:23;15.70;99.20
65078;DHT22;51672;51.230;-2.322;2022-09-03T00:37:08;15.50;99.30
65078;DHT22;51672;51.230;-2.322;2022-09-03T00:57:01;15.30;98.80
65078;DHT22;51672;51.230;-2.322;2022-09-03T01:00:46;15.20;99.90
65078;DHT22;51672;51.230;-2.322;2022-09-03T01:04:58;15.20;99.90
65078;DHT22;51672;51.230;-2.322;2022-09-03T01:12:59;15.10;99.90
65078;DHT22;51672;51.230;-2.322;2022-09-03T01:33:18;14.90;99.90
65078;DHT22;51672;51.230;-2.322;2022-09-03T01:45:55;14.80;99.90
65078;DHT22;51672;51.230;-2.322;2022-09-03T01:50:04;14.80;99.90
65078;DHT22;51672;51.230;-2.322;2022-09-03T01:58:05;14.60;99.90
65078;DHT22;51672;51.230;-2.322;2022-09-03T02:06:02;14.60;99.90
65078;DHT22;51672;51.230;-2.322;2022-09-03T02:09:44;14.60;99.90
65078;DHT22;51672;51.230;-2.322;2022-09-03T02:13:42;14.60;99.90
65078;DHT22;51672;51.230;-2.322;2022-09-03T02:17:25;14.70;99.90
65078;DHT22;51672;51.230;-2.322;2022-09-03T02:21:07;14.70;99.90
65078;DHT22;51672;51.230;-2.322;2022-09-03T02:24:52;14.80;99.90
65078;DHT22;51672;51.230;-2.322;2022-09-03T02:28:34;14.80;99.90
65078;DHT22;51672;51.230;-2.322;2022-09-03T02:32:16;14.80;99.90
65078;DHT22;51672;51.230;-2.322;2022-09-03T02:35:58;14.90;99.90
65078;DHT22;51672;51.230;-2.322;2022-09-03T02:39:40;14.90;99.90
65078;DHT22;51672;51.230;-2.322;2022-09-03T02:47:35;14.90;99.90
65078;DHT22;51672;51.230;-2.322;2022-09-03T02:51:20;14.90;99.90
65078;DHT22;51672;51.230;-2.322;2022-09-03T02:55:02;15.00;99.90
65078;DHT22;51672;51.230;-2.322;2022-09-03T02:58:45;15.00;99.90
65078;DHT22;51672;51.230;-2.322;2022-09-03T03:02:27;15.00;99.90
65078;DHT22;51672;51.230;-2.322;2022-09-03T03:06:09;15.10;99.90
65078;DHT22;51672;51.230;-2.322;2022-09-03T03:09:52;15.10;99.90
65078;DHT22;51672;51.230;-2.322;2022-09-03T03:13:34;15.10;99.90
65078;DHT22;51672;51.230;-2.322;2022-09-03T03:17:16;15.10;99.90
65078;DHT22;51672;51.230;-2.322;2022-09-03T03:21:06;15.10;99.90
65078;DHT22;51672;51.230;-2.322;2022-09-03T03:24:49;15.20;99.90
65078;DHT22;51672;51.230;-2.322;2022-09-03T03:28:31;15.30;99.90
65078;DHT22;51672;51.230;-2.322;2022-09-03T03:32:15;15.40;99.90
65078;DHT22;51672;51.230;-2.322;2022-09-03T03:35:56;15.40;99.90
65078;DHT22;51672;51.230;-2.322;2022-09-03T03:39:38;15.50;99.90
65078;DHT22;51672;51.230;-2.322;2022-09-03T03:43:21;15.60;99.90
65078;DHT22;51672;51.230;-2.322;2022-09-03T03:47:03;15.70;99.90
65078;DHT22;51672;51.230;-2.322;2022-09-03T03:50:46;15.70;99.90
65078;DHT22;51672;51.230;-2.322;2022-09-03T03:54:29;15.80;99.90
65078;DHT22;51672;51.230;-2.322;2022-09-03T03:58:11;15.90;99.90
65078;DHT22;51672;51.230;-2.322;2022-09-03T04:01:56;15.90;99.90
65078;DHT22;51672;51.230;-2.322;2022-09-03T04:05:38;15.80;99.90
65078;DHT22;51672;51.230;-2.322;2022-09-03T04:09:29;15.70;99.90
65078;DHT22;51672;51.230;-2.322;2022-09-03T04:13:10;15.70;99.90
65078;DHT22;51672;51.230;-2.322;2022-09-03T04:16:53;15.70;99.90
65078;DHT22;51672;51.230;-2.322;2022-09-03T04:20:35;15.60;99.90
65078;DHT22;51672;51.230;-2.322;2022-09-03T04:24:17;15.60;99.90
65078;DHT22;51672;51.230;-2.322;2022-09-03T04:27:59;15.60;99.90
65078;DHT22;51672;51.230;-2.322;2022-09-03T04:31:43;15.50;99.90
65078;DHT22;51672;51.230;-2.322;2022-09-03T04:35:44;15.50;99.90
65078;DHT22;51672;51.230;-2.322;2022-09-03T04:39:27;15.40;99.90
65078;DHT22;51672;51.230;-2.322;2022-09-03T04:43:09;15.30;99.90
65078;DHT22;51672;51.230;-2.322;2022-09-03T04:46:51;15.20;99.90
65078;DHT22;51672;51.230;-2.322;2022-09-03T04:50:33;15.20;99.90
65078;DHT22;51672;51.230;-2.322;2022-09-03T04:54:16;15.10;99.90
65078;DHT22;51672;51.230;-2.322;2022-09-03T04:57:58;15.00;99.90
65078;DHT22;51672;51.230;-2.322;2022-09-03T05:01:42;14.90;99.90
65078;DHT22;51672;51.230;-2.322;2022-09-03T05:05:24;14.90;99.90
65078;DHT22;51672;51.230;-2.322;2022-09-03T05:09:06;14.90;99.90
65078;DHT22;51672;51.230;-2.322;2022-09-03T05:13:01;14.80;99.90
65078;DHT22;51672;51.230;-2.322;2022-09-03T05:16:43;14.80;99.90
65078;DHT22;51672;51.230;-2.322;2022-09-03T05:20:33;14.80;99.90
65078;DHT22;51672;51.230;-2.322;2022-09-03T05:24:15;14.80;99.90
65078;DHT22;51672;51.230;-2.322;2022-09-03T05:27:58;14.70;99.90
65078;DHT22;51672;51.230;-2.322;2022-09-03T05:31:40;14.70;99.90
65078;DHT22;51672;51.230;-2.322;2022-09-03T05:35:22;14.70;99.90
65078;DHT22;51672;51.230;-2.322;2022-09-03T05:39:10;14.70;99.90
65078;DHT22;51672;51.230;-2.322;2022-09-03T05:42:55;14.70;99.90
65078;DHT22;51672;51.230;-2.322;2022-09-03T06:00:56;14.70;99.90
65078;DHT22;51672;51.230;-2.322;2022-09-03T06:04:44;14.80;99.90
65078;DHT22;51672;51.230;-2.322;2022-09-03T06:09:00;14.80;99.90
65078;DHT22;51672;51.230;-2.322;2022-09-03T06:43:46;16.20;99.90
65078;DHT22;51672;51.230;-2.322;2022-09-03T06:51:46;16.70;99.90
65078;DHT22;51672;51.230;-2.322;2022-09-03T06:56:08;16.90;99.90
65078;DHT22;51672;51.230;-2.322;2022-09-03T07:08:33;17.70;99.90
65078;DHT22;51672;51.230;-2.322;2022-09-03T07:12:39;18.10;99.90
65078;DHT22;51672;51.230;-2.322;2022-09-03T07:16:30;18.40;99.90
65078;DHT22;51672;51.230;-2.322;2022-09-03T07:20:33;18.70;99.90
65078;DHT22;51672;51.230;-2.322;2022-09-03T07:55:28;20.70;98.00
65078;DHT22;51672;51.230;-2.322;2022-09-03T07:59:12;20.70;98.00
65078;DHT22;51672;51.230;-2.322;2022-09-03T08:21:22;21.10;96.50
65078;DHT22;51672;51.230;-2.322;2022-09-03T08:25:08;21.20;96.40
65078;DHT22;51672;51.230;-2.322;2022-09-03T08:29:12;21.30;96.00
65078;DHT22;51672;51.230;-2.322;2022-09-03T08:33:01;21.30;96.00
65078;DHT22;51672;51.230;-2.322;2022-09-03T08:37:10;21.40;95.80
65078;DHT22;51672;51.230;-2.322;2022-09-03T08:58:54;22.30;94.50
65078;DHT22;51672;51.230;-2.322;2022-09-03T09:21:33;24.20;92.30
65078;DHT22;51672;51.230;-2.322;2022-09-03T09:26:02;24.50;90.40
65078;DHT22;51672;51.230;-2.322;2022-09-03T09:30:31;24.70;90.00
65078;DHT22;51672;51.230;-2.322;2022-09-03T09:34:37;24.90;90.00
65078;DHT22;51672;51.230;-2.322;2022-09-03T09:43:30;25.10;89.00
65078;DHT22;51672;51.230;-2.322;2022-09-03T09:52:31;25.00;88.60
65078;DHT22;51672;51.230;-2.322;2022-09-03T09:56:23;24.70;88.20
65078;DHT22;51672;51.230;-2.322;2022-09-03T10:00:26;24.60;87.80
65078;DHT22;51672;51.230;-2.322;2022-09-03T10:08:45;24.50;89.70
65078;DHT22;51672;51.230;-2.322;2022-09-03T10:17:26;24.30;89.00
65078;DHT22;51672;51.230;-2.322;2022-09-03T10:26:46;24.10;90.20
65078;DHT22;51672;51.230;-2.322;2022-09-03T11:07:26;26.30;81.80
65078;DHT22;51672;51.230;-2.322;2022-09-03T11:21:33;26.10;80.20
65078;DHT22;51672;51.230;-2.322;2022-09-03T11:43:28;25.70;79.20
65078;DHT22;51672;51.230;-2.322;2022-09-03T11:52:29;25.20;81.50
65078;DHT22;51672;51.230;-2.322;2022-09-03T12:01:26;25.50;80.80
65078;DHT22;51672;51.230;-2.322;2022-09-03T12:47:15;24.70;79.70
65078;DHT22;51672;51.230;-2.322;2022-09-03T13:14:42;25.10;78.60
65078;DHT22;51672;51.230;-2.322;2022-09-03T13:40:40;25.60;73.30
65078;DHT22;51672;51.230;-2.322;2022-09-03T14:06:06;24.90;70.40
65078;DHT22;51672;51.230;-2.322;2022-09-03T14:15:05;25.00;68.90
65078;DHT22;51672;51.230;-2.322;2022-09-03T14:19:32;24.90;69.40
65078;DHT22;51672;51.230;-2.322;2022-09-03T14:28:36;25.10;70.50
65078;DHT22;51672;51.230;-2.322;2022-09-03T18:52:58;19.60;82.30
65078;DHT22;51672;51.230;-2.322;2022-09-03T18:57:32;19.60;83.50
65078;DHT22;51672;51.230;-2.322;2022-09-03T19:01:39;19.50;82.70
65078;DHT22;51672;51.230;-2.322;2022-09-03T19:06:15;19.30;84.80
65078;DHT22;51672;51.230;-2.322;2022-09-03T19:10:42;19.20;84.30
65078;DHT22;51672;51.230;-2.322;2022-09-03T19:15:00;19.10;84.00
65078;DHT22;51672;51.230;-2.322;2022-09-03T19:23:35;18.90;84.90
65078;DHT22;51672;51.230;-2.322;2022-09-03T19:32:10;18.80;87.80
65078;DHT22;51672;51.230;-2.322;2022-09-03T19:40:30;18.60;88.60
65078;DHT22;51672;51.230;-2.322;2022-09-03T19:53:26;18.20;88.10
65078;DHT22;51672;51.230;-2.322;2022-09-03T19:57:28;18.10;90.50
65078;DHT22;51672;51.230;-2.322;2022-09-03T20:01:35;18.00;90.70
65078;DHT22;51672;51.230;-2.322;2022-09-03T20:05:37;18.00;90.90
65078;DHT22;51672;51.230;-2.322;2022-09-03T20:09:40;17.90;91.20
65078;DHT22;51672;51.230;-2.322;2022-09-03T20:13:41;17.90;91.50
65078;DHT22;51672;51.230;-2.322;2022-09-03T20:21:38;17.90;91.80
65078;DHT22;51672;51.230;-2.322;2022-09-03T20:25:42;17.80;91.60
65078;DHT22;51672;51.230;-2.322;2022-09-03T20:37:51;17.90;92.50
65078;DHT22;51672;51.230;-2.322;2022-09-03T20:57:30;17.80;92.70
65078;DHT22;51672;51.230;-2.322;2022-09-03T21:01:57;17.80;93.10
65078;DHT22;51672;51.230;-2.322;2022-09-03T21:17:08;17.90;93.40
65078;DHT22;51672;51.230;-2.322;2022-09-03T21:25:36;17.80;92.90
65078;DHT22;51672;51.230;-2.322;2022-09-03T21:29:48;17.80;93.60
65078;DHT22;51672;51.230;-2.322;2022-09-03T21:33:39;17.80;93.50
65078;DHT22;51672;51.230;-2.322;2022-09-03T21:37:23;17.80;94.10
65078;DHT22;51672;51.230;-2.322;2022-09-03T21:45:01;17.80;94.30
65078;DHT22;51672;51.230;-2.322;2022-09-03T21:48:55;17.80;94.20
65078;DHT22;51672;51.230;-2.322;2022-09-03T22:00:45;17.80;93.80
65078;DHT22;51672;51.230;-2.322;2022-09-03T22:04:27;17.80;94.40
65078;DHT22;51672;51.230;-2.322;2022-09-03T22:08:34;17.90;94.40
65078;DHT22;51672;51.230;-2.322;2022-09-03T22:12:35;17.80;93.80
65078;DHT22;51672;51.230;-2.322;2022-09-03T22:17:32;17.90;94.10
65078;DHT22;51672;51.230;-2.322;2022-09-03T22:20:45;17.90;93.90
65078;DHT22;51672;51.230;-2.322;2022-09-03T22:29:02;18.00;94.40
65078;DHT22;51672;51.230;-2.322;2022-09-03T22:37:03;18.00;94.60
65078;DHT22;51672;51.230;-2.322;2022-09-03T22:56:51;18.10;95.90
65078;DHT22;51672;51.230;-2.322;2022-09-03T23:00:46;18.10;96.10
65078;DHT22;51672;51.230;-2.322;2022-09-03T23:08:32;18.10;96.30
65078;DHT22;51672;51.230;-2.322;2022-09-03T23:12:49;18.10;96.50
65078;DHT22;51672;51.230;-2.322;2022-09-03T23:16:37;18.10;95.70
65078;DHT22;51672;51.230;-2.322;2022-09-03T23:20:24;18.10;96.80
65078;DHT22;51672;51.230;-2.322;2022-09-03T23:24:11;18.10;96.80
65078;DHT22;51672;51.230;-2.322;2022-09-03T23:31:49;18.10;97.20
65078;DHT22;51672;51.230;-2.322;2022-09-03T23:35:42;18.20;97.30
65078;DHT22;51672;51.230;-2.322;2022-09-03T23:39:32;18.20;97.30
65078;DHT22;51672;51.230;-2.322;2022-09-03T23:47:51;18.20;96.90
65078;DHT22;51672;51.230;-2.322;2022-09-03T23:52:06;18.20;97.00
